Portada
METAR-TAF:

METAR-TAF

Aeroports :

Amman, Jordània

latitud: 31-59N, longitud: 035-59E, altitud: 767 m

Observació

L'informe es va fer fa 51 minuts, a les 17:00 UTC
Vent calma
Temperatura 19°C
Humitat 30%
Pressió 1024 hPa
Visibilitat: 5000 m
calitja

METAR: OJAM 241700Z 00000KT 5000 HZ NSC 19/01 Q1024 NOSIG

Hora: 20:51 (17:51 UTC)

Pronòstic

L'informe es va fer fa 51 minuts, a les 17:00 UTC
Pronòstic vàlid del 24 a les 18 UTC al 25 a les 24 UTC
Vent 6 kt del Est/Nord-Est
Visibilitat: 6000 m
Probabilitat 40% :
Temporalment
l' 25 a les 02 UTC al 25 a les 06 UTC
Vent 2 kt amb direcció variable
Visibilitat: 3000 m
calitja

TAF: OJAM 241700Z 2418/2524 07006KT 6000 NSC PROB40 TEMPO 2502/2506 VRB02KT 3000 HZ

Observacions i pronòstics meteorològics de més de 4000 aeroports (METAR i TAF).

Les estacions disponibles són els punts grocs i vermells al mapa.

Posi el ratolí al punt desitjat per veure el nom de l'estació.

Feu clic per veure les observacions i els pronòstics meteorològics.

Per canviar el mapa: feu clic els botons verds amb una creu de color negre per apropar; al botó verd amb un guió per allunyar la imatge; o en les fletxes verdes per a mapes adjacents.


METAR-TAF: